Terminal Aerodrome Forecast
Issued by NWS

Home | Current Version | Previous Version | Text Only | Print | Product List | Glossary On
Versions: 1 2 3 4 5 6 7 8 9 10 11 12 13 14 15 16 17 18 19
825
FTUS44 KBMX 211120
TAFTOI
TAF
KTOI 211120Z 2112/2212 00000KT 4SM BR SKC
      TEMPO 2112/2114 1SM BR BKN003
     FM211400 02005KT P6SM SCT060=

USA.gov is the U.S. government's official web portal to all federal, state and local government web resources and services.